sensor_id;sensor_type;location;lat;lon;timestamp;temperature;humidity
4673;DHT22;61885;53.560;9.940;2023-03-29T00:00:02;5.10;35.80
4673;DHT22;61885;53.560;9.940;2023-03-29T00:02:34;5.10;40.00
4673;DHT22;61885;53.560;9.940;2023-03-29T00:05:05;5.10;41.60
4673;DHT22;61885;53.560;9.940;2023-03-29T00:07:35;5.00;40.00
4673;DHT22;61885;53.560;9.940;2023-03-29T00:10:05;5.00;38.00
4673;DHT22;61885;53.560;9.940;2023-03-29T00:12:36;5.00;40.30
4673;DHT22;61885;53.560;9.940;2023-03-29T00:15:12;5.00;39.00
4673;DHT22;61885;53.560;9.940;2023-03-29T00:17:42;5.00;38.00
4673;DHT22;61885;53.560;9.940;2023-03-29T00:20:11;5.00;41.60
4673;DHT22;61885;53.560;9.940;2023-03-29T00:22:43;5.10;41.60
4673;DHT22;61885;53.560;9.940;2023-03-29T00:25:12;5.00;42.40
4673;DHT22;61885;53.560;9.940;2023-03-29T00:27:42;4.90;43.60
4673;DHT22;61885;53.560;9.940;2023-03-29T00:30:16;4.90;43.50
4673;DHT22;61885;53.560;9.940;2023-03-29T00:32:47;4.90;48.10
4673;DHT22;61885;53.560;9.940;2023-03-29T00:35:17;4.90;47.80
4673;DHT22;61885;53.560;9.940;2023-03-29T00:37:47;4.90;45.40
4673;DHT22;61885;53.560;9.940;2023-03-29T00:40:20;4.90;46.10
4673;DHT22;61885;53.560;9.940;2023-03-29T00:42:50;5.00;46.60
4673;DHT22;61885;53.560;9.940;2023-03-29T00:45:26;5.00;45.90
4673;DHT22;61885;53.560;9.940;2023-03-29T00:47:57;5.00;44.60
4673;DHT22;61885;53.560;9.940;2023-03-29T00:50:31;5.00;42.20
4673;DHT22;61885;53.560;9.940;2023-03-29T00:53:05;5.10;43.60
4673;DHT22;61885;53.560;9.940;2023-03-29T00:55:43;5.10;44.30
4673;DHT22;61885;53.560;9.940;2023-03-29T00:58:20;5.10;44.30
4673;DHT22;61885;53.560;9.940;2023-03-29T01:00:57;5.10;44.10
4673;DHT22;61885;53.560;9.940;2023-03-29T01:03:32;5.10;43.90
4673;DHT22;61885;53.560;9.940;2023-03-29T01:06:07;5.20;44.40
4673;DHT22;61885;53.560;9.940;2023-03-29T01:08:44;5.10;44.50
4673;DHT22;61885;53.560;9.940;2023-03-29T01:11:18;5.10;44.00
4673;DHT22;61885;53.560;9.940;2023-03-29T01:13:56;5.10;44.40
4673;DHT22;61885;53.560;9.940;2023-03-29T01:16:32;5.10;43.20
4673;DHT22;61885;53.560;9.940;2023-03-29T01:19:04;5.10;43.80
4673;DHT22;61885;53.560;9.940;2023-03-29T01:21:39;5.10;43.10
4673;DHT22;61885;53.560;9.940;2023-03-29T01:24:27;5.10;42.60
4673;DHT22;61885;53.560;9.940;2023-03-29T01:27:09;5.10;41.80
4673;DHT22;61885;53.560;9.940;2023-03-29T01:29:45;5.10;40.80
4673;DHT22;61885;53.560;9.940;2023-03-29T01:32:20;5.10;40.80
4673;DHT22;61885;53.560;9.940;2023-03-29T01:34:55;5.10;40.80
4673;DHT22;61885;53.560;9.940;2023-03-29T01:37:29;5.10;41.60
4673;DHT22;61885;53.560;9.940;2023-03-29T01:40:03;5.10;42.30
4673;DHT22;61885;53.560;9.940;2023-03-29T01:42:41;5.10;43.20
4673;DHT22;61885;53.560;9.940;2023-03-29T01:45:21;5.10;43.80
4673;DHT22;61885;53.560;9.940;2023-03-29T01:47:57;5.20;43.60
4673;DHT22;61885;53.560;9.940;2023-03-29T01:50:35;5.20;42.70
4673;DHT22;61885;53.560;9.940;2023-03-29T01:53:09;5.20;40.80
4673;DHT22;61885;53.560;9.940;2023-03-29T01:55:43;5.20;39.40
4673;DHT22;61885;53.560;9.940;2023-03-29T01:58:15;5.10;34.60
4673;DHT22;61885;53.560;9.940;2023-03-29T02:00:49;5.10;34.90
4673;DHT22;61885;53.560;9.940;2023-03-29T02:03:22;5.10;35.20
4673;DHT22;61885;53.560;9.940;2023-03-29T02:05:54;5.10;32.10
4673;DHT22;61885;53.560;9.940;2023-03-29T02:08:25;5.10;30.90
4673;DHT22;61885;53.560;9.940;2023-03-29T02:10:56;5.00;28.70
4673;DHT22;61885;53.560;9.940;2023-03-29T02:13:27;5.00;29.20
4673;DHT22;61885;53.560;9.940;2023-03-29T02:16:00;4.90;28.90
4673;DHT22;61885;53.560;9.940;2023-03-29T02:18:30;4.90;29.20
4673;DHT22;61885;53.560;9.940;2023-03-29T02:21:00;4.90;29.30
4673;DHT22;61885;53.560;9.940;2023-03-29T02:23:35;5.00;29.50
4673;DHT22;61885;53.560;9.940;2023-03-29T02:26:07;4.90;29.20
4673;DHT22;61885;53.560;9.940;2023-03-29T02:28:36;4.90;29.30
4673;DHT22;61885;53.560;9.940;2023-03-29T02:31:14;4.90;29.30
4673;DHT22;61885;53.560;9.940;2023-03-29T02:33:48;4.90;29.10
4673;DHT22;61885;53.560;9.940;2023-03-29T02:36:23;4.90;28.40
4673;DHT22;61885;53.560;9.940;2023-03-29T02:38:55;4.80;28.40
4673;DHT22;61885;53.560;9.940;2023-03-29T02:41:28;4.80;28.60
4673;DHT22;61885;53.560;9.940;2023-03-29T02:44:01;4.80;28.20
4673;DHT22;61885;53.560;9.940;2023-03-29T02:46:36;4.90;28.70
4673;DHT22;61885;53.560;9.940;2023-03-29T02:49:08;4.80;29.30
4673;DHT22;61885;53.560;9.940;2023-03-29T02:51:39;4.80;29.50
4673;DHT22;61885;53.560;9.940;2023-03-29T02:54:10;4.80;29.40
4673;DHT22;61885;53.560;9.940;2023-03-29T02:56:44;4.70;28.50
4673;DHT22;61885;53.560;9.940;2023-03-29T02:59:17;4.70;28.00
4673;DHT22;61885;53.560;9.940;2023-03-29T03:01:51;4.60;27.20
4673;DHT22;61885;53.560;9.940;2023-03-29T03:04:20;4.60;26.50
4673;DHT22;61885;53.560;9.940;2023-03-29T03:06:57;4.50;26.80
4673;DHT22;61885;53.560;9.940;2023-03-29T03:09:27;4.50;27.10
4673;DHT22;61885;53.560;9.940;2023-03-29T03:11:56;4.50;27.00
4673;DHT22;61885;53.560;9.940;2023-03-29T03:14:26;4.50;27.40
4673;DHT22;61885;53.560;9.940;2023-03-29T03:16:59;4.40;27.30
4673;DHT22;61885;53.560;9.940;2023-03-29T03:19:28;4.50;27.40
4673;DHT22;61885;53.560;9.940;2023-03-29T03:22:03;4.50;27.90
4673;DHT22;61885;53.560;9.940;2023-03-29T03:24:35;4.40;28.10
4673;DHT22;61885;53.560;9.940;2023-03-29T03:27:04;4.40;29.10
4673;DHT22;61885;53.560;9.940;2023-03-29T03:29:34;4.40;28.20
4673;DHT22;61885;53.560;9.940;2023-03-29T03:32:07;4.40;28.80
4673;DHT22;61885;53.560;9.940;2023-03-29T03:34:38;4.40;28.20
4673;DHT22;61885;53.560;9.940;2023-03-29T03:37:11;4.40;28.80
4673;DHT22;61885;53.560;9.940;2023-03-29T03:39:41;4.40;29.40
4673;DHT22;61885;53.560;9.940;2023-03-29T03:42:11;4.40;28.80
4673;DHT22;61885;53.560;9.940;2023-03-29T03:44:41;4.50;29.30
4673;DHT22;61885;53.560;9.940;2023-03-29T03:47:13;4.50;29.10
4673;DHT22;61885;53.560;9.940;2023-03-29T03:49:43;4.50;29.80
4673;DHT22;61885;53.560;9.940;2023-03-29T03:52:13;4.50;30.00
4673;DHT22;61885;53.560;9.940;2023-03-29T03:54:43;4.50;30.50
4673;DHT22;61885;53.560;9.940;2023-03-29T03:57:13;4.50;30.80
4673;DHT22;61885;53.560;9.940;2023-03-29T03:59:44;4.50;31.30
4673;DHT22;61885;53.560;9.940;2023-03-29T04:02:17;4.50;31.30
4673;DHT22;61885;53.560;9.940;2023-03-29T04:04:47;4.40;31.50
4673;DHT22;61885;53.560;9.940;2023-03-29T04:07:17;4.40;31.90
4673;DHT22;61885;53.560;9.940;2023-03-29T04:09:47;4.40;32.60
4673;DHT22;61885;53.560;9.940;2023-03-29T04:12:16;4.40;32.60
4673;DHT22;61885;53.560;9.940;2023-03-29T04:14:46;4.40;32.40
4673;DHT22;61885;53.560;9.940;2023-03-29T04:17:18;4.40;31.30
4673;DHT22;61885;53.560;9.940;2023-03-29T04:19:48;4.40;30.80
4673;DHT22;61885;53.560;9.940;2023-03-29T04:22:17;4.40;30.90
4673;DHT22;61885;53.560;9.940;2023-03-29T04:24:47;4.50;30.90
4673;DHT22;61885;53.560;9.940;2023-03-29T04:27:17;4.50;30.30
4673;DHT22;61885;53.560;9.940;2023-03-29T04:29:47;4.50;31.40
4673;DHT22;61885;53.560;9.940;2023-03-29T04:32:19;4.50;31.00
4673;DHT22;61885;53.560;9.940;2023-03-29T04:34:49;4.50;32.10
4673;DHT22;61885;53.560;9.940;2023-03-29T04:37:19;4.60;32.90
4673;DHT22;61885;53.560;9.940;2023-03-29T04:39:51;4.70;32.90
4673;DHT22;61885;53.560;9.940;2023-03-29T04:42:20;4.70;32.40
4673;DHT22;61885;53.560;9.940;2023-03-29T04:44:51;4.70;33.00
4673;DHT22;61885;53.560;9.940;2023-03-29T04:47:24;4.70;32.90
4673;DHT22;61885;53.560;9.940;2023-03-29T04:49:56;4.70;33.70
4673;DHT22;61885;53.560;9.940;2023-03-29T04:52:27;4.70;34.00
4673;DHT22;61885;53.560;9.940;2023-03-29T04:54:58;4.70;34.80
4673;DHT22;61885;53.560;9.940;2023-03-29T04:57:28;4.80;35.80
4673;DHT22;61885;53.560;9.940;2023-03-29T05:00:00;4.70;36.10
4673;DHT22;61885;53.560;9.940;2023-03-29T05:02:40;4.80;36.40
4673;DHT22;61885;53.560;9.940;2023-03-29T05:05:10;4.80;37.30
4673;DHT22;61885;53.560;9.940;2023-03-29T05:07:42;4.80;37.70
4673;DHT22;61885;53.560;9.940;2023-03-29T05:10:12;4.80;38.60
4673;DHT22;61885;53.560;9.940;2023-03-29T05:12:41;4.80;39.80
4673;DHT22;61885;53.560;9.940;2023-03-29T05:15:11;4.90;39.60
4673;DHT22;61885;53.560;9.940;2023-03-29T05:17:43;4.90;40.40
4673;DHT22;61885;53.560;9.940;2023-03-29T05:20:13;4.90;40.60
4673;DHT22;61885;53.560;9.940;2023-03-29T05:22:43;4.90;40.60
4673;DHT22;61885;53.560;9.940;2023-03-29T05:25:14;4.90;41.30
4673;DHT22;61885;53.560;9.940;2023-03-29T05:27:44;4.90;41.40
4673;DHT22;61885;53.560;9.940;2023-03-29T05:30:15;4.90;42.70
4673;DHT22;61885;53.560;9.940;2023-03-29T05:32:50;4.90;43.40
4673;DHT22;61885;53.560;9.940;2023-03-29T05:35:20;4.90;43.80
4673;DHT22;61885;53.560;9.940;2023-03-29T05:37:52;5.00;44.70
4673;DHT22;61885;53.560;9.940;2023-03-29T05:40:23;5.00;44.60
4673;DHT22;61885;53.560;9.940;2023-03-29T05:42:53;5.00;44.90
4673;DHT22;61885;53.560;9.940;2023-03-29T05:45:23;5.00;45.10
4673;DHT22;61885;53.560;9.940;2023-03-29T05:47:57;5.10;45.40
4673;DHT22;61885;53.560;9.940;2023-03-29T05:50:27;5.10;45.60
4673;DHT22;61885;53.560;9.940;2023-03-29T05:52:59;5.10;45.90
4673;DHT22;61885;53.560;9.940;2023-03-29T05:55:30;5.10;45.80
4673;DHT22;61885;53.560;9.940;2023-03-29T05:58:04;5.10;45.60
4673;DHT22;61885;53.560;9.940;2023-03-29T06:00:34;5.10;46.30
4673;DHT22;61885;53.560;9.940;2023-03-29T06:03:13;5.20;47.30
4673;DHT22;61885;53.560;9.940;2023-03-29T06:05:47;5.30;45.60
4673;DHT22;61885;53.560;9.940;2023-03-29T06:08:17;5.30;45.70
4673;DHT22;61885;53.560;9.940;2023-03-29T06:10:48;5.30;45.50
4673;DHT22;61885;53.560;9.940;2023-03-29T06:13:18;5.30;46.30
4673;DHT22;61885;53.560;9.940;2023-03-29T06:15:48;5.30;46.50
4673;DHT22;61885;53.560;9.940;2023-03-29T06:18:21;5.30;46.50
4673;DHT22;61885;53.560;9.940;2023-03-29T06:20:52;5.40;46.90
4673;DHT22;61885;53.560;9.940;2023-03-29T06:23:22;5.40;46.60
4673;DHT22;61885;53.560;9.940;2023-03-29T06:25:52;5.50;46.80
4673;DHT22;61885;53.560;9.940;2023-03-29T06:28:22;5.60;47.00
4673;DHT22;61885;53.560;9.940;2023-03-29T06:30:52;5.70;44.60
4673;DHT22;61885;53.560;9.940;2023-03-29T06:33:25;5.80;45.60
4673;DHT22;61885;53.560;9.940;2023-03-29T06:35:54;5.90;43.50
4673;DHT22;61885;53.560;9.940;2023-03-29T06:38:24;6.00;42.80
4673;DHT22;61885;53.560;9.940;2023-03-29T06:41:02;5.90;41.00
4673;DHT22;61885;53.560;9.940;2023-03-29T06:43:31;5.80;41.30
4673;DHT22;61885;53.560;9.940;2023-03-29T06:46:03;5.80;42.90
4673;DHT22;61885;53.560;9.940;2023-03-29T06:48:39;5.90;43.30
4673;DHT22;61885;53.560;9.940;2023-03-29T06:51:11;6.00;41.50
4673;DHT22;61885;53.560;9.940;2023-03-29T06:53:41;6.00;41.50
4673;DHT22;61885;53.560;9.940;2023-03-29T06:56:10;5.90;41.40
4673;DHT22;61885;53.560;9.940;2023-03-29T06:58:40;6.10;41.70
4673;DHT22;61885;53.560;9.940;2023-03-29T07:01:10;6.00;40.10
4673;DHT22;61885;53.560;9.940;2023-03-29T07:03:42;5.80;42.00
4673;DHT22;61885;53.560;9.940;2023-03-29T07:06:12;5.80;43.30
4673;DHT22;61885;53.560;9.940;2023-03-29T07:08:47;6.00;42.80
4673;DHT22;61885;53.560;9.940;2023-03-29T07:11:18;6.00;41.60
4673;DHT22;61885;53.560;9.940;2023-03-29T07:13:47;6.20;41.70
4673;DHT22;61885;53.560;9.940;2023-03-29T07:16:18;6.20;41.60
4673;DHT22;61885;53.560;9.940;2023-03-29T07:18:53;6.20;40.60
4673;DHT22;61885;53.560;9.940;2023-03-29T07:21:38;6.30;41.60
4673;DHT22;61885;53.560;9.940;2023-03-29T07:24:08;6.30;40.50
4673;DHT22;61885;53.560;9.940;2023-03-29T07:26:38;6.30;40.30
4673;DHT22;61885;53.560;9.940;2023-03-29T07:29:23;6.40;40.30
4673;DHT22;61885;53.560;9.940;2023-03-29T07:31:56;6.40;38.50
4673;DHT22;61885;53.560;9.940;2023-03-29T07:34:29;6.50;38.80
4673;DHT22;61885;53.560;9.940;2023-03-29T07:36:59;6.60;38.00
4673;DHT22;61885;53.560;9.940;2023-03-29T07:39:28;6.60;37.30
4673;DHT22;61885;53.560;9.940;2023-03-29T07:41:59;6.50;36.90
4673;DHT22;61885;53.560;9.940;2023-03-29T07:44:29;6.60;37.40
4673;DHT22;61885;53.560;9.940;2023-03-29T07:47:00;6.70;35.60
4673;DHT22;61885;53.560;9.940;2023-03-29T07:49:33;6.70;36.70
4673;DHT22;61885;53.560;9.940;2023-03-29T07:52:03;6.70;35.80
4673;DHT22;61885;53.560;9.940;2023-03-29T07:54:33;6.80;34.70
4673;DHT22;61885;53.560;9.940;2023-03-29T07:57:03;6.80;33.70
4673;DHT22;61885;53.560;9.940;2023-03-29T07:59:35;6.70;34.60
4673;DHT22;61885;53.560;9.940;2023-03-29T08:02:04;6.70;34.60
4673;DHT22;61885;53.560;9.940;2023-03-29T08:04:37;6.80;34.00
4673;DHT22;61885;53.560;9.940;2023-03-29T08:07:10;6.90;34.80
4673;DHT22;61885;53.560;9.940;2023-03-29T08:09:43;6.90;32.50
4673;DHT22;61885;53.560;9.940;2023-03-29T08:12:13;6.90;33.80
4673;DHT22;61885;53.560;9.940;2023-03-29T08:14:43;6.80;33.20
4673;DHT22;61885;53.560;9.940;2023-03-29T08:17:12;6.90;33.90
4673;DHT22;61885;53.560;9.940;2023-03-29T08:19:46;6.90;32.90
4673;DHT22;61885;53.560;9.940;2023-03-29T08:22:16;6.90;33.30
4673;DHT22;61885;53.560;9.940;2023-03-29T08:24:46;6.90;33.10
4673;DHT22;61885;53.560;9.940;2023-03-29T08:27:16;7.00;32.80
4673;DHT22;61885;53.560;9.940;2023-03-29T08:29:45;7.00;32.20
4673;DHT22;61885;53.560;9.940;2023-03-29T08:32:15;7.10;31.30
4673;DHT22;61885;53.560;9.940;2023-03-29T08:34:47;7.20;31.40
4673;DHT22;61885;53.560;9.940;2023-03-29T08:37:17;7.10;30.90
4673;DHT22;61885;53.560;9.940;2023-03-29T08:39:47;7.30;31.00
4673;DHT22;61885;53.560;9.940;2023-03-29T08:42:29;7.40;28.70
4673;DHT22;61885;53.560;9.940;2023-03-29T08:45:05;7.40;29.30
4673;DHT22;61885;53.560;9.940;2023-03-29T08:47:46;7.30;29.50
4673;DHT22;61885;53.560;9.940;2023-03-29T08:50:33;7.30;29.80
4673;DHT22;61885;53.560;9.940;2023-03-29T08:53:07;7.30;29.50
4673;DHT22;61885;53.560;9.940;2023-03-29T08:55:44;7.30;30.30
4673;DHT22;61885;53.560;9.940;2023-03-29T08:58:16;7.30;29.60
4673;DHT22;61885;53.560;9.940;2023-03-29T09:00:52;7.30;29.90
4673;DHT22;61885;53.560;9.940;2023-03-29T09:03:24;7.20;30.30
4673;DHT22;61885;53.560;9.940;2023-03-29T09:06:01;7.20;31.40
4673;DHT22;61885;53.560;9.940;2023-03-29T09:08:43;7.20;31.20
4673;DHT22;61885;53.560;9.940;2023-03-29T09:11:27;7.40;30.90
4673;DHT22;61885;53.560;9.940;2023-03-29T09:14:07;7.60;29.80
4673;DHT22;61885;53.560;9.940;2023-03-29T09:16:47;7.60;28.40
4673;DHT22;61885;53.560;9.940;2023-03-29T09:19:25;7.60;29.00
4673;DHT22;61885;53.560;9.940;2023-03-29T09:22:02;7.60;28.00
4673;DHT22;61885;53.560;9.940;2023-03-29T09:24:58;7.50;28.30
4673;DHT22;61885;53.560;9.940;2023-03-29T09:27:34;7.50;29.80
4673;DHT22;61885;53.560;9.940;2023-03-29T09:30:14;7.70;29.80
4673;DHT22;61885;53.560;9.940;2023-03-29T09:32:55;7.90;27.80
4673;DHT22;61885;53.560;9.940;2023-03-29T09:35:30;7.90;27.20
4673;DHT22;61885;53.560;9.940;2023-03-29T09:38:11;8.10;27.60
4673;DHT22;61885;53.560;9.940;2023-03-29T09:40:44;8.20;26.90
4673;DHT22;61885;53.560;9.940;2023-03-29T09:43:17;8.30;25.90
4673;DHT22;61885;53.560;9.940;2023-03-29T09:45:51;8.20;26.30
4673;DHT22;61885;53.560;9.940;2023-03-29T09:48:24;8.40;25.60
4673;DHT22;61885;53.560;9.940;2023-03-29T09:50:56;8.50;23.30
4673;DHT22;61885;53.560;9.940;2023-03-29T09:53:28;8.50;24.50
4673;DHT22;61885;53.560;9.940;2023-03-29T09:55:59;8.40;22.80
4673;DHT22;61885;53.560;9.940;2023-03-29T09:58:29;8.50;23.50
4673;DHT22;61885;53.560;9.940;2023-03-29T10:01:01;8.50;23.60
4673;DHT22;61885;53.560;9.940;2023-03-29T10:03:35;8.60;22.40
4673;DHT22;61885;53.560;9.940;2023-03-29T10:06:11;8.60;22.40
4673;DHT22;61885;53.560;9.940;2023-03-29T10:08:47;8.70;23.00
4673;DHT22;61885;53.560;9.940;2023-03-29T10:11:21;8.90;21.80
4673;DHT22;61885;53.560;9.940;2023-03-29T10:13:57;8.90;21.00
4673;DHT22;61885;53.560;9.940;2023-03-29T10:16:31;8.70;21.90
4673;DHT22;61885;53.560;9.940;2023-03-29T10:19:15;8.80;21.20
4673;DHT22;61885;53.560;9.940;2023-03-29T10:21:48;8.70;22.30
4673;DHT22;61885;53.560;9.940;2023-03-29T10:24:22;8.60;22.90
4673;DHT22;61885;53.560;9.940;2023-03-29T10:26:57;8.70;23.00
4673;DHT22;61885;53.560;9.940;2023-03-29T10:29:35;8.70;23.00
4673;DHT22;61885;53.560;9.940;2023-03-29T10:32:13;8.80;24.00
4673;DHT22;61885;53.560;9.940;2023-03-29T10:34:46;8.70;24.50
4673;DHT22;61885;53.560;9.940;2023-03-29T10:37:17;8.80;24.90
4673;DHT22;61885;53.560;9.940;2023-03-29T10:39:53;9.10;24.70
4673;DHT22;61885;53.560;9.940;2023-03-29T10:42:24;9.30;22.40
4673;DHT22;61885;53.560;9.940;2023-03-29T10:44:56;9.30;21.10
4673;DHT22;61885;53.560;9.940;2023-03-29T10:47:30;9.50;22.50
4673;DHT22;61885;53.560;9.940;2023-03-29T10:50:07;9.50;21.80
4673;DHT22;61885;53.560;9.940;2023-03-29T10:52:41;9.60;21.50
4673;DHT22;61885;53.560;9.940;2023-03-29T10:55:19;9.40;22.40
4673;DHT22;61885;53.560;9.940;2023-03-29T10:57:59;9.10;24.20
4673;DHT22;61885;53.560;9.940;2023-03-29T11:00:39;9.00;26.60
4673;DHT22;61885;53.560;9.940;2023-03-29T11:03:45;9.00;27.00
4673;DHT22;61885;53.560;9.940;2023-03-29T11:06:21;9.10;27.60
4673;DHT22;61885;53.560;9.940;2023-03-29T11:08:55;9.10;26.70
4673;DHT22;61885;53.560;9.940;2023-03-29T11:11:46;9.00;29.20
4673;DHT22;61885;53.560;9.940;2023-03-29T11:14:27;9.20;29.80
4673;DHT22;61885;53.560;9.940;2023-03-29T11:17:10;9.20;28.70
4673;DHT22;61885;53.560;9.940;2023-03-29T11:20:05;9.20;29.40
4673;DHT22;61885;53.560;9.940;2023-03-29T11:22:44;9.10;30.60
4673;DHT22;61885;53.560;9.940;2023-03-29T11:25:24;9.20;31.40
4673;DHT22;61885;53.560;9.940;2023-03-29T11:28:07;9.00;32.50
4673;DHT22;61885;53.560;9.940;2023-03-29T11:30:47;8.80;35.50
4673;DHT22;61885;53.560;9.940;2023-03-29T11:33:31;9.00;36.50
4673;DHT22;61885;53.560;9.940;2023-03-29T11:36:08;9.10;33.50
4673;DHT22;61885;53.560;9.940;2023-03-29T11:38:50;9.10;34.50
4673;DHT22;61885;53.560;9.940;2023-03-29T11:41:28;9.20;32.60
4673;DHT22;61885;53.560;9.940;2023-03-29T11:44:05;9.10;32.90
4673;DHT22;61885;53.560;9.940;2023-03-29T11:46:42;9.00;33.60
4673;DHT22;61885;53.560;9.940;2023-03-29T11:49:19;9.00;35.20
4673;DHT22;61885;53.560;9.940;2023-03-29T11:51:54;9.10;33.30
4673;DHT22;61885;53.560;9.940;2023-03-29T11:54:32;9.00;34.50
4673;DHT22;61885;53.560;9.940;2023-03-29T11:57:10;8.90;35.70
4673;DHT22;61885;53.560;9.940;2023-03-29T11:59:52;9.00;35.00
4673;DHT22;61885;53.560;9.940;2023-03-29T12:02:30;8.90;36.00
4673;DHT22;61885;53.560;9.940;2023-03-29T12:05:04;9.10;33.70
4673;DHT22;61885;53.560;9.940;2023-03-29T12:07:42;9.30;32.70
4673;DHT22;61885;53.560;9.940;2023-03-29T12:10:18;9.30;31.40
4673;DHT22;61885;53.560;9.940;2023-03-29T12:12:53;9.20;32.10
4673;DHT22;61885;53.560;9.940;2023-03-29T12:15:32;9.10;33.40
4673;DHT22;61885;53.560;9.940;2023-03-29T12:18:09;9.20;33.90
4673;DHT22;61885;53.560;9.940;2023-03-29T12:20:47;9.30;32.50
4673;DHT22;61885;53.560;9.940;2023-03-29T12:23:18;9.70;30.00
4673;DHT22;61885;53.560;9.940;2023-03-29T12:25:54;9.70;28.70
4673;DHT22;61885;53.560;9.940;2023-03-29T12:28:38;9.60;29.90
4673;DHT22;61885;53.560;9.940;2023-03-29T12:31:15;9.50;30.70
4673;DHT22;61885;53.560;9.940;2023-03-29T12:34:12;9.40;32.70
4673;DHT22;61885;53.560;9.940;2023-03-29T12:39:44;9.40;33.40
4673;DHT22;61885;53.560;9.940;2023-03-29T12:42:18;9.40;35.40
4673;DHT22;61885;53.560;9.940;2023-03-29T12:44:50;9.30;35.50
4673;DHT22;61885;53.560;9.940;2023-03-29T12:47:42;9.40;35.50
4673;DHT22;61885;53.560;9.940;2023-03-29T12:50:25;9.60;35.20
4673;DHT22;61885;53.560;9.940;2023-03-29T12:53:05;9.60;35.20
4673;DHT22;61885;53.560;9.940;2023-03-29T12:55:52;9.70;34.90
4673;DHT22;61885;53.560;9.940;2023-03-29T12:58:39;9.70;34.90
4673;DHT22;61885;53.560;9.940;2023-03-29T13:01:22;9.80;34.50
4673;DHT22;61885;53.560;9.940;2023-03-29T13:04:12;10.10;32.20
4673;DHT22;61885;53.560;9.940;2023-03-29T13:06:59;10.30;31.00
4673;DHT22;61885;53.560;9.940;2023-03-29T13:09:46;10.30;29.30
4673;DHT22;61885;53.560;9.940;2023-03-29T13:12:23;10.40;29.40
4673;DHT22;61885;53.560;9.940;2023-03-29T13:14:56;10.60;29.10
4673;DHT22;61885;53.560;9.940;2023-03-29T13:17:34;10.80;26.80
4673;DHT22;61885;53.560;9.940;2023-03-29T13:20:37;10.80;27.00
4673;DHT22;61885;53.560;9.940;2023-03-29T13:23:23;10.70;26.40
4673;DHT22;61885;53.560;9.940;2023-03-29T13:26:19;10.80;24.80
4673;DHT22;61885;53.560;9.940;2023-03-29T13:29:09;10.90;25.00
4673;DHT22;61885;53.560;9.940;2023-03-29T13:31:46;10.80;25.20
4673;DHT22;61885;53.560;9.940;2023-03-29T13:34:33;10.90;25.60
4673;DHT22;61885;53.560;9.940;2023-03-29T13:37:27;11.00;24.90
4673;DHT22;61885;53.560;9.940;2023-03-29T13:39:59;10.90;25.90
4673;DHT22;61885;53.560;9.940;2023-03-29T13:42:38;11.00;26.20
4673;DHT22;61885;53.560;9.940;2023-03-29T13:45:14;10.90;25.70
4673;DHT22;61885;53.560;9.940;2023-03-29T13:47:46;10.70;26.90
4673;DHT22;61885;53.560;9.940;2023-03-29T13:50:18;10.70;27.60
4673;DHT22;61885;53.560;9.940;2023-03-29T13:52:58;10.90;27.70
4673;DHT22;61885;53.560;9.940;2023-03-29T13:55:31;11.20;27.00
4673;DHT22;61885;53.560;9.940;2023-03-29T13:58:08;11.30;25.10
4673;DHT22;61885;53.560;9.940;2023-03-29T14:00:44;11.30;26.50
4673;DHT22;61885;53.560;9.940;2023-03-29T14:03:19;11.30;25.90
4673;DHT22;61885;53.560;9.940;2023-03-29T14:05:57;11.20;26.40
4673;DHT22;61885;53.560;9.940;2023-03-29T14:08:35;11.10;27.50
4673;DHT22;61885;53.560;9.940;2023-03-29T14:11:15;11.20;28.20
4673;DHT22;61885;53.560;9.940;2023-03-29T14:13:46;11.40;28.00
4673;DHT22;61885;53.560;9.940;2023-03-29T14:16:18;11.50;29.30
4673;DHT22;61885;53.560;9.940;2023-03-29T14:18:52;11.50;27.30
4673;DHT22;61885;53.560;9.940;2023-03-29T14:21:22;11.50;27.80
4673;DHT22;61885;53.560;9.940;2023-03-29T14:24:00;11.70;27.70
4673;DHT22;61885;53.560;9.940;2023-03-29T14:26:32;11.80;26.30
4673;DHT22;61885;53.560;9.940;2023-03-29T14:29:05;11.60;28.00
4673;DHT22;61885;53.560;9.940;2023-03-29T14:31:38;11.20;30.00
4673;DHT22;61885;53.560;9.940;2023-03-29T14:34:12;11.20;31.30
4673;DHT22;61885;53.560;9.940;2023-03-29T14:36:43;11.00;33.60
4673;DHT22;61885;53.560;9.940;2023-03-29T14:39:49;10.80;37.90
4673;DHT22;61885;53.560;9.940;2023-03-29T14:42:45;10.90;40.50
4673;DHT22;61885;53.560;9.940;2023-03-29T14:45:25;11.20;41.50
4673;DHT22;61885;53.560;9.940;2023-03-29T14:48:28;10.90;44.80
4673;DHT22;61885;53.560;9.940;2023-03-29T14:55:16;11.10;49.40
4673;DHT22;61885;53.560;9.940;2023-03-29T14:58:02;10.80;51.10
4673;DHT22;61885;53.560;9.940;2023-03-29T15:00:47;10.50;54.00
4673;DHT22;61885;53.560;9.940;2023-03-29T15:03:19;10.00;54.10
4673;DHT22;61885;53.560;9.940;2023-03-29T15:06:20;11.40;52.90
4673;DHT22;61885;53.560;9.940;2023-03-29T15:09:01;10.60;52.90
4673;DHT22;61885;53.560;9.940;2023-03-29T15:12:06;10.60;52.10
4673;DHT22;61885;53.560;9.940;2023-03-29T15:15:00;10.70;51.00
4673;DHT22;61885;53.560;9.940;2023-03-29T15:18:15;11.40;49.70
4673;DHT22;61885;53.560;9.940;2023-03-29T15:25:13;11.30;50.10
4673;DHT22;61885;53.560;9.940;2023-03-29T15:35:23;11.10;49.90
4673;DHT22;61885;53.560;9.940;2023-03-29T15:37:56;11.20;52.10
4673;DHT22;61885;53.560;9.940;2023-03-29T15:40:32;10.90;50.60
4673;DHT22;61885;53.560;9.940;2023-03-29T15:43:09;11.20;50.20
4673;DHT22;61885;53.560;9.940;2023-03-29T15:45:39;10.90;49.10
4673;DHT22;61885;53.560;9.940;2023-03-29T15:48:13;10.90;49.30
4673;DHT22;61885;53.560;9.940;2023-03-29T15:50:46;11.00;49.90
4673;DHT22;61885;53.560;9.940;2023-03-29T15:53:17;10.90;50.00
4673;DHT22;61885;53.560;9.940;2023-03-29T15:56:00;10.70;51.90
4673;DHT22;61885;53.560;9.940;2023-03-29T15:58:34;11.40;61.60
4673;DHT22;61885;53.560;9.940;2023-03-29T16:01:16;11.80;48.30
4673;DHT22;61885;53.560;9.940;2023-03-29T16:04:24;12.10;51.40
4673;DHT22;61885;53.560;9.940;2023-03-29T16:07:11;11.70;38.90
4673;DHT22;61885;53.560;9.940;2023-03-29T16:09:42;11.60;43.00
4673;DHT22;61885;53.560;9.940;2023-03-29T16:12:12;11.10;45.00
4673;DHT22;61885;53.560;9.940;2023-03-29T16:14:44;11.00;47.10
4673;DHT22;61885;53.560;9.940;2023-03-29T16:17:16;10.90;48.80
4673;DHT22;61885;53.560;9.940;2023-03-29T16:20:11;10.80;49.30
4673;DHT22;61885;53.560;9.940;2023-03-29T16:23:13;10.80;51.00
4673;DHT22;61885;53.560;9.940;2023-03-29T16:25:42;10.80;51.10
4673;DHT22;61885;53.560;9.940;2023-03-29T16:28:15;10.90;50.90
4673;DHT22;61885;53.560;9.940;2023-03-29T16:30:48;10.90;50.60
4673;DHT22;61885;53.560;9.940;2023-03-29T16:33:19;10.80;51.20
4673;DHT22;61885;53.560;9.940;2023-03-29T16:35:49;10.80;52.10
4673;DHT22;61885;53.560;9.940;2023-03-29T16:38:21;10.80;52.80
4673;DHT22;61885;53.560;9.940;2023-03-29T16:40:54;10.90;53.00
4673;DHT22;61885;53.560;9.940;2023-03-29T16:43:26;10.90;52.40
4673;DHT22;61885;53.560;9.940;2023-03-29T16:45:58;10.70;53.90
4673;DHT22;61885;53.560;9.940;2023-03-29T16:48:28;10.70;54.90
4673;DHT22;61885;53.560;9.940;2023-03-29T16:50:59;10.70;55.00
4673;DHT22;61885;53.560;9.940;2023-03-29T16:53:34;10.80;55.70
4673;DHT22;61885;53.560;9.940;2023-03-29T16:56:06;10.80;55.00
4673;DHT22;61885;53.560;9.940;2023-03-29T16:58:42;10.70;55.80
4673;DHT22;61885;53.560;9.940;2023-03-29T17:01:14;10.70;56.90
4673;DHT22;61885;53.560;9.940;2023-03-29T17:03:45;10.80;57.00
4673;DHT22;61885;53.560;9.940;2023-03-29T17:06:16;10.80;56.50